sensor_id;sensor_type;location;lat;lon;timestamp;P1;durP1;ratioP1;P2;durP2;ratioP2
2656;SDS011;1338;48.176;11.792;2022-12-07T00:00:06;12.07;;;10.80;;
2656;SDS011;1338;48.176;11.792;2022-12-07T00:02:35;11.20;;;9.33;;
2656;SDS011;1338;48.176;11.792;2022-12-07T00:05:04;11.27;;;9.77;;
2656;SDS011;1338;48.176;11.792;2022-12-07T00:07:35;10.30;;;9.17;;
2656;SDS011;1338;48.176;11.792;2022-12-07T00:10:05;12.77;;;10.63;;
2656;SDS011;1338;48.176;11.792;2022-12-07T00:12:34;13.70;;;11.40;;
2656;SDS011;1338;48.176;11.792;2022-12-07T00:15:03;12.03;;;10.17;;
2656;SDS011;1338;48.176;11.792;2022-12-07T00:17:32;12.17;;;9.90;;
2656;SDS011;1338;48.176;11.792;2022-12-07T00:20:01;13.27;;;10.57;;
2656;SDS011;1338;48.176;11.792;2022-12-07T00:22:31;12.57;;;10.03;;
2656;SDS011;1338;48.176;11.792;2022-12-07T00:25:03;12.40;;;8.77;;
2656;SDS011;1338;48.176;11.792;2022-12-07T00:27:32;14.17;;;11.03;;
2656;SDS011;1338;48.176;11.792;2022-12-07T00:30:01;11.90;;;9.83;;
2656;SDS011;1338;48.176;11.792;2022-12-07T00:32:30;16.17;;;12.00;;
2656;SDS011;1338;48.176;11.792;2022-12-07T00:34:59;12.23;;;9.67;;
2656;SDS011;1338;48.176;11.792;2022-12-07T00:37:28;14.23;;;11.50;;
2656;SDS011;1338;48.176;11.792;2022-12-07T00:39:57;13.37;;;10.47;;
2656;SDS011;1338;48.176;11.792;2022-12-07T00:42:28;12.00;;;10.00;;
2656;SDS011;1338;48.176;11.792;2022-12-07T00:44:56;13.23;;;10.03;;
2656;SDS011;1338;48.176;11.792;2022-12-07T00:47:25;13.10;;;10.00;;
2656;SDS011;1338;48.176;11.792;2022-12-07T00:49:54;12.53;;;9.73;;
2656;SDS011;1338;48.176;11.792;2022-12-07T00:52:23;12.30;;;11.00;;
2656;SDS011;1338;48.176;11.792;2022-12-07T00:54:52;12.83;;;9.73;;
2656;SDS011;1338;48.176;11.792;2022-12-07T00:57:22;13.13;;;11.70;;
2656;SDS011;1338;48.176;11.792;2022-12-07T00:59:53;12.90;;;10.30;;
2656;SDS011;1338;48.176;11.792;2022-12-07T01:02:24;10.97;;;9.40;;
2656;SDS011;1338;48.176;11.792;2022-12-07T01:04:52;12.83;;;11.27;;
2656;SDS011;1338;48.176;11.792;2022-12-07T01:07:21;13.63;;;10.83;;
2656;SDS011;1338;48.176;11.792;2022-12-07T01:09:49;13.67;;;10.40;;
2656;SDS011;1338;48.176;11.792;2022-12-07T01:12:17;12.57;;;10.93;;
2656;SDS011;1338;48.176;11.792;2022-12-07T01:14:49;10.33;;;9.10;;
2656;SDS011;1338;48.176;11.792;2022-12-07T01:17:20;12.77;;;9.80;;
2656;SDS011;1338;48.176;11.792;2022-12-07T01:19:48;12.93;;;10.67;;
2656;SDS011;1338;48.176;11.792;2022-12-07T01:22:20;13.27;;;10.60;;
2656;SDS011;1338;48.176;11.792;2022-12-07T01:24:49;12.80;;;10.87;;
2656;SDS011;1338;48.176;11.792;2022-12-07T01:27:19;10.23;;;8.80;;
2656;SDS011;1338;48.176;11.792;2022-12-07T01:29:48;13.47;;;10.20;;
2656;SDS011;1338;48.176;11.792;2022-12-07T01:32:17;14.17;;;9.97;;
2656;SDS011;1338;48.176;11.792;2022-12-07T01:34:48;11.70;;;10.50;;
2656;SDS011;1338;48.176;11.792;2022-12-07T01:37:17;12.40;;;10.37;;
2656;SDS011;1338;48.176;11.792;2022-12-07T01:39:48;12.63;;;10.03;;
2656;SDS011;1338;48.176;11.792;2022-12-07T01:42:17;13.97;;;10.20;;
2656;SDS011;1338;48.176;11.792;2022-12-07T01:47:59;11.93;;;9.50;;
2656;SDS011;1338;48.176;11.792;2022-12-07T01:50:30;12.10;;;9.20;;
2656;SDS011;1338;48.176;11.792;2022-12-07T01:52:59;13.87;;;10.73;;
2656;SDS011;1338;48.176;11.792;2022-12-07T01:55:32;16.27;;;11.50;;
2656;SDS011;1338;48.176;11.792;2022-12-07T01:58:04;11.80;;;10.03;;
2656;SDS011;1338;48.176;11.792;2022-12-07T02:00:33;13.07;;;10.47;;
2656;SDS011;1338;48.176;11.792;2022-12-07T02:03:04;13.17;;;10.30;;
2656;SDS011;1338;48.176;11.792;2022-12-07T02:05:38;12.97;;;10.90;;
2656;SDS011;1338;48.176;11.792;2022-12-07T02:08:09;12.90;;;10.30;;
2656;SDS011;1338;48.176;11.792;2022-12-07T02:10:41;12.63;;;10.37;;
2656;SDS011;1338;48.176;11.792;2022-12-07T02:13:12;15.97;;;10.83;;
2656;SDS011;1338;48.176;11.792;2022-12-07T02:15:51;14.50;;;11.27;;
2656;SDS011;1338;48.176;11.792;2022-12-07T02:18:37;14.33;;;10.83;;
2656;SDS011;1338;48.176;11.792;2022-12-07T02:21:16;12.60;;;10.53;;
2656;SDS011;1338;48.176;11.792;2022-12-07T02:23:59;13.40;;;11.60;;
2656;SDS011;1338;48.176;11.792;2022-12-07T02:27:02;16.50;;;11.97;;
2656;SDS011;1338;48.176;11.792;2022-12-07T02:29:59;16.20;;;12.50;;
2656;SDS011;1338;48.176;11.792;2022-12-07T02:32:34;16.03;;;12.23;;
2656;SDS011;1338;48.176;11.792;2022-12-07T02:35:11;18.80;;;11.80;;
2656;SDS011;1338;48.176;11.792;2022-12-07T02:37:48;14.60;;;12.23;;
2656;SDS011;1338;48.176;11.792;2022-12-07T02:40:25;17.00;;;12.20;;
2656;SDS011;1338;48.176;11.792;2022-12-07T02:43:01;16.10;;;12.20;;
2656;SDS011;1338;48.176;11.792;2022-12-07T02:45:38;18.40;;;12.50;;
2656;SDS011;1338;48.176;11.792;2022-12-07T02:48:10;13.43;;;11.03;;
2656;SDS011;1338;48.176;11.792;2022-12-07T02:50:43;15.03;;;11.30;;
2656;SDS011;1338;48.176;11.792;2022-12-07T02:53:31;14.23;;;10.27;;
2656;SDS011;1338;48.176;11.792;2022-12-07T02:56:01;15.27;;;11.50;;
2656;SDS011;1338;48.176;11.792;2022-12-07T02:58:39;17.33;;;11.80;;
2656;SDS011;1338;48.176;11.792;2022-12-07T03:01:24;14.30;;;12.00;;
2656;SDS011;1338;48.176;11.792;2022-12-07T03:04:08;15.20;;;12.10;;
2656;SDS011;1338;48.176;11.792;2022-12-07T03:06:50;13.83;;;11.70;;
2656;SDS011;1338;48.176;11.792;2022-12-07T03:09:25;15.33;;;12.40;;
2656;SDS011;1338;48.176;11.792;2022-12-07T03:12:04;15.60;;;11.63;;
2656;SDS011;1338;48.176;11.792;2022-12-07T03:14:41;15.93;;;11.53;;
2656;SDS011;1338;48.176;11.792;2022-12-07T03:17:18;15.80;;;11.70;;
2656;SDS011;1338;48.176;11.792;2022-12-07T03:19:51;15.50;;;11.73;;
2656;SDS011;1338;48.176;11.792;2022-12-07T03:22:27;12.50;;;10.80;;
2656;SDS011;1338;48.176;11.792;2022-12-07T03:25:00;15.70;;;12.50;;
2656;SDS011;1338;48.176;11.792;2022-12-07T03:27:34;16.47;;;11.77;;
2656;SDS011;1338;48.176;11.792;2022-12-07T03:30:06;16.00;;;11.50;;
2656;SDS011;1338;48.176;11.792;2022-12-07T03:32:41;15.47;;;12.53;;
2656;SDS011;1338;48.176;11.792;2022-12-07T03:35:14;16.27;;;11.60;;
2656;SDS011;1338;48.176;11.792;2022-12-07T03:37:49;16.00;;;11.80;;
2656;SDS011;1338;48.176;11.792;2022-12-07T03:40:22;17.23;;;12.10;;
2656;SDS011;1338;48.176;11.792;2022-12-07T03:42:54;16.30;;;11.67;;
2656;SDS011;1338;48.176;11.792;2022-12-07T03:45:24;17.10;;;11.97;;
2656;SDS011;1338;48.176;11.792;2022-12-07T03:48:03;14.87;;;10.63;;
2656;SDS011;1338;48.176;11.792;2022-12-07T03:50:38;19.07;;;13.13;;
2656;SDS011;1338;48.176;11.792;2022-12-07T03:53:12;18.00;;;13.77;;
2656;SDS011;1338;48.176;11.792;2022-12-07T03:55:46;13.37;;;11.40;;
2656;SDS011;1338;48.176;11.792;2022-12-07T03:58:17;15.50;;;12.97;;
2656;SDS011;1338;48.176;11.792;2022-12-07T04:00:48;16.00;;;12.43;;
2656;SDS011;1338;48.176;11.792;2022-12-07T04:03:19;16.33;;;13.13;;
2656;SDS011;1338;48.176;11.792;2022-12-07T04:05:48;17.97;;;11.40;;
2656;SDS011;1338;48.176;11.792;2022-12-07T04:08:17;15.03;;;11.60;;
2656;SDS011;1338;48.176;11.792;2022-12-07T04:10:46;16.13;;;11.93;;
2656;SDS011;1338;48.176;11.792;2022-12-07T04:13:15;15.40;;;11.60;;
2656;SDS011;1338;48.176;11.792;2022-12-07T04:15:46;16.00;;;12.37;;
2656;SDS011;1338;48.176;11.792;2022-12-07T04:18:15;17.67;;;11.97;;
2656;SDS011;1338;48.176;11.792;2022-12-07T04:20:45;13.80;;;11.47;;
2656;SDS011;1338;48.176;11.792;2022-12-07T04:23:15;15.03;;;11.90;;
2656;SDS011;1338;48.176;11.792;2022-12-07T04:25:43;18.33;;;12.77;;
2656;SDS011;1338;48.176;11.792;2022-12-07T04:28:12;15.53;;;12.10;;
2656;SDS011;1338;48.176;11.792;2022-12-07T04:30:41;14.43;;;11.17;;
2656;SDS011;1338;48.176;11.792;2022-12-07T04:33:10;17.10;;;12.40;;
2656;SDS011;1338;48.176;11.792;2022-12-07T04:35:39;15.70;;;12.43;;
2656;SDS011;1338;48.176;11.792;2022-12-07T04:38:12;15.13;;;11.63;;
2656;SDS011;1338;48.176;11.792;2022-12-07T04:40:41;17.83;;;13.90;;
2656;SDS011;1338;48.176;11.792;2022-12-07T04:43:09;15.03;;;12.23;;
2656;SDS011;1338;48.176;11.792;2022-12-07T04:45:38;17.30;;;12.67;;
2656;SDS011;1338;48.176;11.792;2022-12-07T04:48:07;20.50;;;14.80;;
2656;SDS011;1338;48.176;11.792;2022-12-07T04:50:35;18.67;;;14.00;;
2656;SDS011;1338;48.176;11.792;2022-12-07T04:53:13;18.03;;;13.47;;
2656;SDS011;1338;48.176;11.792;2022-12-07T04:55:42;20.37;;;14.77;;
2656;SDS011;1338;48.176;11.792;2022-12-07T04:58:12;16.30;;;12.67;;
2656;SDS011;1338;48.176;11.792;2022-12-07T05:00:41;18.63;;;14.10;;
2656;SDS011;1338;48.176;11.792;2022-12-07T05:03:10;20.20;;;15.20;;
2656;SDS011;1338;48.176;11.792;2022-12-07T05:05:40;19.77;;;13.70;;
2656;SDS011;1338;48.176;11.792;2022-12-07T05:08:10;18.07;;;13.23;;
2656;SDS011;1338;48.176;11.792;2022-12-07T05:10:40;19.93;;;13.40;;
2656;SDS011;1338;48.176;11.792;2022-12-07T05:13:10;20.40;;;15.00;;
2656;SDS011;1338;48.176;11.792;2022-12-07T05:15:38;19.03;;;14.10;;
2656;SDS011;1338;48.176;11.792;2022-12-07T05:18:07;18.40;;;13.40;;
2656;SDS011;1338;48.176;11.792;2022-12-07T05:20:36;19.13;;;13.90;;
2656;SDS011;1338;48.176;11.792;2022-12-07T05:23:08;21.03;;;16.33;;
2656;SDS011;1338;48.176;11.792;2022-12-07T05:25:37;19.77;;;13.63;;
2656;SDS011;1338;48.176;11.792;2022-12-07T05:28:08;18.90;;;13.60;;
2656;SDS011;1338;48.176;11.792;2022-12-07T05:30:37;18.73;;;13.40;;
2656;SDS011;1338;48.176;11.792;2022-12-07T05:33:07;17.97;;;14.70;;
2656;SDS011;1338;48.176;11.792;2022-12-07T05:35:36;27.63;;;14.60;;
2656;SDS011;1338;48.176;11.792;2022-12-07T05:38:05;22.93;;;15.97;;
2656;SDS011;1338;48.176;11.792;2022-12-07T05:40:34;23.67;;;16.63;;
2656;SDS011;1338;48.176;11.792;2022-12-07T05:43:04;20.73;;;15.60;;
2656;SDS011;1338;48.176;11.792;2022-12-07T05:45:34;20.07;;;14.97;;
2656;SDS011;1338;48.176;11.792;2022-12-07T05:48:06;20.80;;;15.53;;
2656;SDS011;1338;48.176;11.792;2022-12-07T05:50:36;21.17;;;15.63;;
2656;SDS011;1338;48.176;11.792;2022-12-07T05:53:05;21.83;;;17.00;;
2656;SDS011;1338;48.176;11.792;2022-12-07T05:55:34;20.63;;;14.73;;
2656;SDS011;1338;48.176;11.792;2022-12-07T05:58:03;20.37;;;14.47;;
2656;SDS011;1338;48.176;11.792;2022-12-07T06:00:51;18.43;;;13.20;;
2656;SDS011;1338;48.176;11.792;2022-12-07T06:03:21;20.53;;;14.77;;
2656;SDS011;1338;48.176;11.792;2022-12-07T06:05:54;21.17;;;15.00;;
2656;SDS011;1338;48.176;11.792;2022-12-07T06:08:23;22.53;;;16.03;;
2656;SDS011;1338;48.176;11.792;2022-12-07T06:10:53;19.83;;;14.57;;
2656;SDS011;1338;48.176;11.792;2022-12-07T06:13:35;20.10;;;14.00;;
2656;SDS011;1338;48.176;11.792;2022-12-07T06:16:13;23.00;;;15.37;;
2656;SDS011;1338;48.176;11.792;2022-12-07T06:18:43;18.77;;;14.73;;
2656;SDS011;1338;48.176;11.792;2022-12-07T06:21:12;19.27;;;14.03;;
2656;SDS011;1338;48.176;11.792;2022-12-07T06:23:41;19.27;;;14.83;;
2656;SDS011;1338;48.176;11.792;2022-12-07T06:26:10;17.00;;;13.50;;
2656;SDS011;1338;48.176;11.792;2022-12-07T06:28:41;18.83;;;14.47;;
2656;SDS011;1338;48.176;11.792;2022-12-07T06:31:09;18.30;;;13.80;;
2656;SDS011;1338;48.176;11.792;2022-12-07T06:33:43;18.30;;;15.10;;
2656;SDS011;1338;48.176;11.792;2022-12-07T06:36:13;20.90;;;15.37;;
2656;SDS011;1338;48.176;11.792;2022-12-07T06:38:45;22.50;;;15.83;;
2656;SDS011;1338;48.176;11.792;2022-12-07T06:41:13;19.90;;;14.80;;
2656;SDS011;1338;48.176;11.792;2022-12-07T06:43:41;18.90;;;14.63;;
2656;SDS011;1338;48.176;11.792;2022-12-07T06:46:09;20.80;;;15.10;;
2656;SDS011;1338;48.176;11.792;2022-12-07T06:48:39;21.90;;;16.00;;
2656;SDS011;1338;48.176;11.792;2022-12-07T06:51:07;19.70;;;15.67;;
2656;SDS011;1338;48.176;11.792;2022-12-07T06:53:36;21.60;;;17.30;;
2656;SDS011;1338;48.176;11.792;2022-12-07T06:56:04;22.30;;;16.10;;
2656;SDS011;1338;48.176;11.792;2022-12-07T06:58:33;22.03;;;16.70;;
2656;SDS011;1338;48.176;11.792;2022-12-07T07:01:01;22.20;;;15.50;;
2656;SDS011;1338;48.176;11.792;2022-12-07T07:03:29;22.53;;;16.83;;
2656;SDS011;1338;48.176;11.792;2022-12-07T07:05:58;20.47;;;14.90;;
2656;SDS011;1338;48.176;11.792;2022-12-07T07:08:26;19.93;;;14.87;;
2656;SDS011;1338;48.176;11.792;2022-12-07T07:10:55;23.83;;;16.80;;
2656;SDS011;1338;48.176;11.792;2022-12-07T07:13:23;19.03;;;14.30;;
2656;SDS011;1338;48.176;11.792;2022-12-07T07:15:51;20.63;;;15.37;;
2656;SDS011;1338;48.176;11.792;2022-12-07T07:18:19;20.30;;;14.83;;
2656;SDS011;1338;48.176;11.792;2022-12-07T07:20:47;19.87;;;14.70;;
2656;SDS011;1338;48.176;11.792;2022-12-07T07:23:16;21.00;;;15.17;;
2656;SDS011;1338;48.176;11.792;2022-12-07T07:25:44;18.70;;;15.23;;
2656;SDS011;1338;48.176;11.792;2022-12-07T07:28:13;22.20;;;13.50;;
2656;SDS011;1338;48.176;11.792;2022-12-07T07:30:41;21.57;;;15.73;;
2656;SDS011;1338;48.176;11.792;2022-12-07T07:33:09;20.87;;;15.50;;
2656;SDS011;1338;48.176;11.792;2022-12-07T07:35:38;21.70;;;14.93;;
2656;SDS011;1338;48.176;11.792;2022-12-07T07:38:06;21.77;;;14.87;;
2656;SDS011;1338;48.176;11.792;2022-12-07T07:40:36;18.93;;;14.40;;
2656;SDS011;1338;48.176;11.792;2022-12-07T07:43:04;19.43;;;16.20;;
2656;SDS011;1338;48.176;11.792;2022-12-07T07:45:32;21.37;;;15.53;;
2656;SDS011;1338;48.176;11.792;2022-12-07T07:48:00;20.93;;;15.97;;
2656;SDS011;1338;48.176;11.792;2022-12-07T07:50:28;18.07;;;13.57;;
2656;SDS011;1338;48.176;11.792;2022-12-07T07:52:56;19.17;;;14.13;;
2656;SDS011;1338;48.176;11.792;2022-12-07T07:55:25;19.93;;;14.97;;
2656;SDS011;1338;48.176;11.792;2022-12-07T07:57:54;18.63;;;13.83;;
2656;SDS011;1338;48.176;11.792;2022-12-07T08:00:23;18.57;;;13.27;;
2656;SDS011;1338;48.176;11.792;2022-12-07T08:02:51;17.33;;;12.67;;
2656;SDS011;1338;48.176;11.792;2022-12-07T08:05:19;20.17;;;14.60;;
2656;SDS011;1338;48.176;11.792;2022-12-07T08:07:47;19.27;;;14.10;;
2656;SDS011;1338;48.176;11.792;2022-12-07T08:10:15;19.83;;;14.17;;
2656;SDS011;1338;48.176;11.792;2022-12-07T08:12:43;20.73;;;14.57;;
2656;SDS011;1338;48.176;11.792;2022-12-07T08:15:30;17.20;;;12.97;;
2656;SDS011;1338;48.176;11.792;2022-12-07T08:17:58;19.33;;;14.87;;
2656;SDS011;1338;48.176;11.792;2022-12-07T08:20:29;19.60;;;14.60;;
2656;SDS011;1338;48.176;11.792;2022-12-07T08:22:59;17.90;;;13.90;;
2656;SDS011;1338;48.176;11.792;2022-12-07T08:25:27;18.60;;;13.03;;
2656;SDS011;1338;48.176;11.792;2022-12-07T08:27:55;16.97;;;14.40;;
2656;SDS011;1338;48.176;11.792;2022-12-07T08:30:23;16.87;;;12.77;;
2656;SDS011;1338;48.176;11.792;2022-12-07T08:32:53;18.47;;;14.20;;
2656;SDS011;1338;48.176;11.792;2022-12-07T08:35:21;16.50;;;13.70;;
2656;SDS011;1338;48.176;11.792;2022-12-07T08:37:49;17.67;;;14.10;;
2656;SDS011;1338;48.176;11.792;2022-12-07T08:40:17;16.83;;;13.67;;
2656;SDS011;1338;48.176;11.792;2022-12-07T08:42:50;19.20;;;14.80;;
2656;SDS011;1338;48.176;11.792;2022-12-07T08:45:19;18.70;;;12.80;;
2656;SDS011;1338;48.176;11.792;2022-12-07T08:47:55;18.17;;;13.60;;
2656;SDS011;1338;48.176;11.792;2022-12-07T08:50:26;17.47;;;13.43;;
2656;SDS011;1338;48.176;11.792;2022-12-07T08:52:55;19.40;;;13.97;;
2656;SDS011;1338;48.176;11.792;2022-12-07T08:55:25;18.90;;;14.90;;
2656;SDS011;1338;48.176;11.792;2022-12-07T08:57:54;18.00;;;13.77;;
2656;SDS011;1338;48.176;11.792;2022-12-07T09:00:24;16.47;;;13.27;;
2656;SDS011;1338;48.176;11.792;2022-12-07T09:02:54;16.50;;;12.40;;
2656;SDS011;1338;48.176;11.792;2022-12-07T09:05:22;17.40;;;14.77;;
2656;SDS011;1338;48.176;11.792;2022-12-07T09:07:51;20.90;;;13.63;;
2656;SDS011;1338;48.176;11.792;2022-12-07T09:10:24;18.90;;;13.30;;
2656;SDS011;1338;48.176;11.792;2022-12-07T09:12:52;16.37;;;13.10;;
2656;SDS011;1338;48.176;11.792;2022-12-07T09:15:21;17.50;;;13.47;;
2656;SDS011;1338;48.176;11.792;2022-12-07T09:17:49;17.93;;;11.70;;
2656;SDS011;1338;48.176;11.792;2022-12-07T09:20:18;16.40;;;13.10;;
2656;SDS011;1338;48.176;11.792;2022-12-07T09:22:53;18.63;;;13.90;;
2656;SDS011;1338;48.176;11.792;2022-12-07T09:25:21;18.87;;;13.20;;
2656;SDS011;1338;48.176;11.792;2022-12-07T09:27:54;16.53;;;12.30;;
2656;SDS011;1338;48.176;11.792;2022-12-07T09:30:23;16.90;;;11.67;;
2656;SDS011;1338;48.176;11.792;2022-12-07T09:32:52;18.87;;;14.57;;
2656;SDS011;1338;48.176;11.792;2022-12-07T09:35:22;16.10;;;13.37;;
2656;SDS011;1338;48.176;11.792;2022-12-07T09:37:50;16.83;;;12.80;;
2656;SDS011;1338;48.176;11.792;2022-12-07T09:40:19;15.70;;;12.10;;
2656;SDS011;1338;48.176;11.792;2022-12-07T09:42:51;15.33;;;12.37;;
2656;SDS011;1338;48.176;11.792;2022-12-07T09:45:22;14.77;;;12.80;;
2656;SDS011;1338;48.176;11.792;2022-12-07T09:47:52;14.73;;;11.30;;
2656;SDS011;1338;48.176;11.792;2022-12-07T09:50:22;19.13;;;11.93;;
2656;SDS011;1338;48.176;11.792;2022-12-07T09:52:52;14.03;;;11.77;;
2656;SDS011;1338;48.176;11.792;2022-12-07T09:55:31;17.80;;;12.63;;
2656;SDS011;1338;48.176;11.792;2022-12-07T09:58:01;14.80;;;10.60;;
2656;SDS011;1338;48.176;11.792;2022-12-07T10:00:29;17.07;;;12.20;;
2656;SDS011;1338;48.176;11.792;2022-12-07T10:02:58;16.20;;;11.30;;
2656;SDS011;1338;48.176;11.792;2022-12-07T10:05:29;18.00;;;13.20;;
2656;SDS011;1338;48.176;11.792;2022-12-07T10:08:01;13.57;;;11.37;;
2656;SDS011;1338;48.176;11.792;2022-12-07T10:10:30;13.23;;;10.27;;
2656;SDS011;1338;48.176;11.792;2022-12-07T10:13:05;17.20;;;12.60;;
2656;SDS011;1338;48.176;11.792;2022-12-07T10:15:40;14.50;;;11.30;;
2656;SDS011;1338;48.176;11.792;2022-12-07T10:18:16;14.90;;;11.47;;
2656;SDS011;1338;48.176;11.792;2022-12-07T10:21:01;18.70;;;13.10;;
2656;SDS011;1338;48.176;11.792;2022-12-07T10:23:40;15.17;;;11.30;;
2656;SDS011;1338;48.176;11.792;2022-12-07T10:26:19;15.50;;;11.67;;
2656;SDS011;1338;48.176;11.792;2022-12-07T10:28:53;17.47;;;13.07;;
2656;SDS011;1338;48.176;11.792;2022-12-07T10:31:23;14.90;;;12.07;;
2656;SDS011;1338;48.176;11.792;2022-12-07T10:33:52;16.07;;;13.27;;
2656;SDS011;1338;48.176;11.792;2022-12-07T10:36:24;15.03;;;12.33;;
2656;SDS011;1338;48.176;11.792;2022-12-07T10:38:58;15.33;;;12.23;;
2656;SDS011;1338;48.176;11.792;2022-12-07T10:41:29;12.57;;;10.63;;
2656;SDS011;1338;48.176;11.792;2022-12-07T10:43:57;13.80;;;10.90;;
2656;SDS011;1338;48.176;11.792;2022-12-07T10:52:50;14.07;;;11.07;;
2656;SDS011;1338;48.176;11.792;2022-12-07T10:55:41;14.63;;;11.23;;
2656;SDS011;1338;48.176;11.792;2022-12-07T10:58:28;13.20;;;10.20;;
2656;SDS011;1338;48.176;11.792;2022-12-07T11:01:09;14.90;;;11.50;;
2656;SDS011;1338;48.176;11.792;2022-12-07T11:03:52;13.37;;;10.57;;
2656;SDS011;1338;48.176;11.792;2022-12-07T11:06:42;13.00;;;8.87;;
2656;SDS011;1338;48.176;11.792;2022-12-07T11:09:24;14.67;;;10.60;;
2656;SDS011;1338;48.176;11.792;2022-12-07T11:12:29;13.30;;;10.97;;
2656;SDS011;1338;48.176;11.792;2022-12-07T11:15:10;9.20;;;7.70;;
2656;SDS011;1338;48.176;11.792;2022-12-07T11:17:45;10.60;;;8.73;;
2656;SDS011;1338;48.176;11.792;2022-12-07T11:20:28;9.30;;;8.30;;
2656;SDS011;1338;48.176;11.792;2022-12-07T11:23:04;12.07;;;8.53;;
2656;SDS011;1338;48.176;11.792;2022-12-07T11:25:52;9.80;;;8.40;;
2656;SDS011;1338;48.176;11.792;2022-12-07T11:28:28;9.60;;;7.00;;
2656;SDS011;1338;48.176;11.792;2022-12-07T11:31:10;8.30;;;6.73;;
2656;SDS011;1338;48.176;11.792;2022-12-07T11:33:47;8.60;;;7.10;;
2656;SDS011;1338;48.176;11.792;2022-12-07T11:36:27;8.07;;;7.23;;
2656;SDS011;1338;48.176;11.792;2022-12-07T11:39:01;10.10;;;8.53;;
2656;SDS011;1338;48.176;11.792;2022-12-07T11:41:34;10.00;;;8.10;;
2656;SDS011;1338;48.176;11.792;2022-12-07T11:44:05;10.77;;;7.33;;
2656;SDS011;1338;48.176;11.792;2022-12-07T11:46:45;10.73;;;8.63;;
2656;SDS011;1338;48.176;11.792;2022-12-07T11:49:19;10.70;;;8.27;;
2656;SDS011;1338;48.176;11.792;2022-12-07T11:51:52;9.47;;;8.53;;
2656;SDS011;1338;48.176;11.792;2022-12-07T11:54:26;10.23;;;8.07;;
2656;SDS011;1338;48.176;11.792;2022-12-07T11:56:59;8.20;;;7.23;;
2656;SDS011;1338;48.176;11.792;2022-12-07T11:59:32;9.80;;;7.90;;
2656;SDS011;1338;48.176;11.792;2022-12-07T12:02:10;11.90;;;7.23;;
2656;SDS011;1338;48.176;11.792;2022-12-07T12:04:45;7.90;;;6.40;;
2656;SDS011;1338;48.176;11.792;2022-12-07T12:07:21;9.73;;;7.13;;
2656;SDS011;1338;48.176;11.792;2022-12-07T12:10:16;12.10;;;7.17;;
2656;SDS011;1338;48.176;11.792;2022-12-07T12:13:05;13.03;;;7.77;;
2656;SDS011;1338;48.176;11.792;2022-12-07T12:16:12;8.33;;;6.67;;
2656;SDS011;1338;48.176;11.792;2022-12-07T12:19:11;8.23;;;6.70;;
2656;SDS011;1338;48.176;11.792;2022-12-07T12:21:53;9.40;;;7.40;;
2656;SDS011;1338;48.176;11.792;2022-12-07T12:24:25;9.20;;;7.37;;
2656;SDS011;1338;48.176;11.792;2022-12-07T12:26:57;9.43;;;7.60;;
2656;SDS011;1338;48.176;11.792;2022-12-07T12:29:32;8.93;;;7.43;;
2656;SDS011;1338;48.176;11.792;2022-12-07T12:32:07;9.90;;;7.17;;
2656;SDS011;1338;48.176;11.792;2022-12-07T12:34:42;9.53;;;7.17;;
2656;SDS011;1338;48.176;11.792;2022-12-07T12:37:39;11.27;;;7.80;;
2656;SDS011;1338;48.176;11.792;2022-12-07T12:49:34;10.93;;;6.63;;
2656;SDS011;1338;48.176;11.792;2022-12-07T12:58:25;9.07;;;7.43;;
2656;SDS011;1338;48.176;11.792;2022-12-07T13:04:21;9.07;;;7.07;;
2656;SDS011;1338;48.176;11.792;2022-12-07T13:07:12;8.33;;;7.30;;
2656;SDS011;1338;48.176;11.792;2022-12-07T13:10:01;10.50;;;7.60;;
2656;SDS011;1338;48.176;11.792;2022-12-07T13:12:30;11.90;;;8.27;;
2656;SDS011;1338;48.176;11.792;2022-12-07T13:14:59;11.40;;;8.07;;
2656;SDS011;1338;48.176;11.792;2022-12-07T13:20:49;9.50;;;7.43;;
2656;SDS011;1338;48.176;11.792;2022-12-07T13:23:23;10.53;;;7.67;;
2656;SDS011;1338;48.176;11.792;2022-12-07T13:26:00;9.27;;;7.70;;
2656;SDS011;1338;48.176;11.792;2022-12-07T13:28:44;10.73;;;7.90;;
2656;SDS011;1338;48.176;11.792;2022-12-07T13:31:14;11.80;;;7.87;;
2656;SDS011;1338;48.176;11.792;2022-12-07T13:33:50;12.77;;;8.70;;
2656;SDS011;1338;48.176;11.792;2022-12-07T13:36:21;10.63;;;7.27;;
2656;SDS011;1338;48.176;11.792;2022-12-07T13:38:52;10.43;;;7.67;;
2656;SDS011;1338;48.176;11.792;2022-12-07T13:41:22;9.23;;;8.10;;
2656;SDS011;1338;48.176;11.792;2022-12-07T13:43:52;10.10;;;7.90;;
2656;SDS011;1338;48.176;11.792;2022-12-07T13:46:31;11.80;;;8.50;;
2656;SDS011;1338;48.176;11.792;2022-12-07T13:49:17;11.93;;;7.30;;
2656;SDS011;1338;48.176;11.792;2022-12-07T13:51:50;9.83;;;8.53;;
2656;SDS011;1338;48.176;11.792;2022-12-07T13:54:20;10.50;;;8.00;;
2656;SDS011;1338;48.176;11.792;2022-12-07T13:56:49;8.80;;;7.90;;
2656;SDS011;1338;48.176;11.792;2022-12-07T13:59:19;9.47;;;8.10;;
2656;SDS011;1338;48.176;11.792;2022-12-07T14:01:50;14.90;;;9.33;;
2656;SDS011;1338;48.176;11.792;2022-12-07T14:04:27;12.37;;;8.73;;
2656;SDS011;1338;48.176;11.792;2022-12-07T14:07:00;10.60;;;9.13;;
2656;SDS011;1338;48.176;11.792;2022-12-07T14:09:53;11.30;;;9.80;;
2656;SDS011;1338;48.176;11.792;2022-12-07T14:12:23;11.10;;;9.60;;
2656;SDS011;1338;48.176;11.792;2022-12-07T14:14:53;11.20;;;9.20;;
2656;SDS011;1338;48.176;11.792;2022-12-07T14:17:23;13.20;;;10.50;;
2656;SDS011;1338;48.176;11.792;2022-12-07T14:19:53;11.33;;;8.40;;
2656;SDS011;1338;48.176;11.792;2022-12-07T14:22:28;10.90;;;8.60;;
2656;SDS011;1338;48.176;11.792;2022-12-07T14:25:00;16.43;;;9.70;;
2656;SDS011;1338;48.176;11.792;2022-12-07T14:27:31;12.73;;;10.60;;
2656;SDS011;1338;48.176;11.792;2022-12-07T14:30:02;13.13;;;10.40;;
2656;SDS011;1338;48.176;11.792;2022-12-07T14:32:31;12.00;;;9.67;;
2656;SDS011;1338;48.176;11.792;2022-12-07T14:35:03;17.80;;;11.57;;
2656;SDS011;1338;48.176;11.792;2022-12-07T14:37:39;13.83;;;10.00;;
2656;SDS011;1338;48.176;11.792;2022-12-07T14:40:12;11.37;;;9.00;;
2656;SDS011;1338;48.176;11.792;2022-12-07T14:42:41;14.00;;;10.37;;
2656;SDS011;1338;48.176;11.792;2022-12-07T14:45:12;12.80;;;9.77;;
2656;SDS011;1338;48.176;11.792;2022-12-07T14:47:43;13.97;;;10.73;;
2656;SDS011;1338;48.176;11.792;2022-12-07T14:50:31;12.57;;;9.13;;
2656;SDS011;1338;48.176;11.792;2022-12-07T14:53:06;12.40;;;10.10;;
2656;SDS011;1338;48.176;11.792;2022-12-07T14:55:55;16.13;;;11.33;;
2656;SDS011;1338;48.176;11.792;2022-12-07T14:58:23;16.17;;;11.80;;
2656;SDS011;1338;48.176;11.792;2022-12-07T15:00:51;12.83;;;10.57;;
2656;SDS011;1338;48.176;11.792;2022-12-07T15:03:19;12.00;;;10.37;;
2656;SDS011;1338;48.176;11.792;2022-12-07T15:05:47;13.87;;;9.20;;
2656;SDS011;1338;48.176;11.792;2022-12-07T15:08:16;12.30;;;9.70;;
2656;SDS011;1338;48.176;11.792;2022-12-07T15:10:45;13.87;;;10.20;;
2656;SDS011;1338;48.176;11.792;2022-12-07T15:13:13;11.77;;;9.60;;
2656;SDS011;1338;48.176;11.792;2022-12-07T15:15:59;14.20;;;9.07;;
2656;SDS011;1338;48.176;11.792;2022-12-07T15:18:27;12.50;;;10.50;;
2656;SDS011;1338;48.176;11.792;2022-12-07T15:20:55;16.73;;;11.80;;
2656;SDS011;1338;48.176;11.792;2022-12-07T15:23:25;13.37;;;10.77;;
2656;SDS011;1338;48.176;11.792;2022-12-07T15:25:53;13.17;;;10.93;;
2656;SDS011;1338;48.176;11.792;2022-12-07T15:28:21;13.30;;;10.33;;
2656;SDS011;1338;48.176;11.792;2022-12-07T15:30:49;12.87;;;10.23;;
2656;SDS011;1338;48.176;11.792;2022-12-07T15:33:17;12.63;;;10.30;;
2656;SDS011;1338;48.176;11.792;2022-12-07T15:35:45;12.73;;;10.30;;
2656;SDS011;1338;48.176;11.792;2022-12-07T15:38:13;14.80;;;10.50;;
2656;SDS011;1338;48.176;11.792;2022-12-07T15:40:43;12.97;;;10.30;;